Terminal Aerodrome Forecast
Issued by NWS Mt. Holly, NJ

Home | Current Version | Previous Version | Text Only | Print | Product List | Glossary On
Versions: 1 2 3 4 5 6 7 8 9 10 11 12 13 14 15 16 17 18 19 20 21 22 23 24 25 26
000
FTUS41 KPHI 141100
TAFACY
TAF
KACY 141125Z 1412/1512 16005KT P6SM VCSH SCT060 BKN120
     FM141300 19009KT P6SM SCT040 BKN120
     FM142000 19012KT P6SM BKN040
      TEMPO 1423/1502 3SM TSRA BKN025CB
     FM150500 19006KT 6SM BR SCT040 BKN120
     FM150800 20003KT 4SM BR BKN120=

USA.gov is the U.S. government's official web portal to all federal, state and local government web resources and services.